createdAt,value
2023-02-12T00:02:02.813Z,18.52
2023-02-12T00:04:36.109Z,15.73
2023-02-12T00:07:02.917Z,13.20
2023-02-12T00:09:36.096Z,13.90
2023-02-12T00:12:03.137Z,15.85
2023-02-12T00:14:36.294Z,13.45
2023-02-12T00:17:03.658Z,14.38
2023-02-12T00:19:50.105Z,14.07
2023-02-12T00:22:16.977Z,14.23
2023-02-12T00:24:50.114Z,12.50
2023-02-12T00:27:16.994Z,15.18
2023-02-12T00:29:43.738Z,13.07
2023-02-12T00:32:17.125Z,12.82
2023-02-12T00:34:50.116Z,14.15
2023-02-12T00:37:17.143Z,12.93
2023-02-12T00:39:44.260Z,15.10
2023-02-12T00:42:22.158Z,11.13
2023-02-12T00:44:48.901Z,13.30
2023-02-12T00:47:23.136Z,12.77
2023-02-12T00:49:50.028Z,12.45
2023-02-12T00:52:23.146Z,13.05
2023-02-12T00:54:49.906Z,13.90
2023-02-12T00:57:23.225Z,12.80
2023-02-12T00:59:50.033Z,13.95
2023-02-12T01:02:24.209Z,11.02
2023-02-12T01:04:51.108Z,12.32
2023-02-12T01:07:17.948Z,13.38
2023-02-12T01:09:51.195Z,12.43
2023-02-12T01:12:24.198Z,12.50
2023-02-12T01:14:51.015Z,11.52
2023-02-12T01:17:17.908Z,11.77
2023-02-12T01:19:51.236Z,10.57
2023-02-12T01:22:17.994Z,9.60
2023-02-12T01:24:51.196Z,10.35
2023-02-12T01:27:18.072Z,11.40
2023-02-12T01:29:52.270Z,13.68
2023-02-12T01:32:21.215Z,13.23
2023-02-12T01:34:54.260Z,14.07
2023-02-12T01:37:27.252Z,13.98
2023-02-12T01:40:00.261Z,16.08
2023-02-12T01:42:27.728Z,13.80
2023-02-12T01:45:19.286Z,13.85
2023-02-12T01:47:46.041Z,15.25
2023-02-12T01:50:25.277Z,12.38
2023-02-12T01:52:55.997Z,11.15
2023-02-12T01:55:29.320Z,11.80
2023-02-12T01:58:02.396Z,11.70
2023-02-12T02:00:36.294Z,12.65
2023-02-12T02:03:10.674Z,10.25
2023-02-12T02:05:55.656Z,12.57
2023-02-12T02:08:23.361Z,15.10
2023-02-12T02:10:56.331Z,16.63
2023-02-12T02:13:41.990Z,14.25
2023-02-12T02:16:25.377Z,15.38
2023-02-12T02:19:07.313Z,16.05
2023-02-12T02:21:49.293Z,17.63
2023-02-12T02:24:31.347Z,13.50
2023-02-12T02:27:22.331Z,20.02
2023-02-12T02:30:42.422Z,17.50
2023-02-12T02:33:45.335Z,18.40
2023-02-12T02:36:34.595Z,16.10
2023-02-12T02:39:05.132Z,17.52
2023-02-12T02:41:49.332Z,15.77
2023-02-12T02:44:50.564Z,16.92
2023-02-12T02:47:28.305Z,16.35
2023-02-12T02:50:01.920Z,17.63
2023-02-12T02:52:48.454Z,20.50
2023-02-12T02:55:19.084Z,19.45
2023-02-12T02:58:00.389Z,17.77
2023-02-12T03:01:05.395Z,17.40
2023-02-12T03:03:41.360Z,15.15
2023-02-12T03:06:14.368Z,15.88
2023-02-12T03:08:59.356Z,15.07
2023-02-12T03:11:29.896Z,15.65
2023-02-12T03:14:21.398Z,14.38
2023-02-12T03:17:11.836Z,16.23
2023-02-12T03:20:10.375Z,16.10
2023-02-12T03:22:44.863Z,15.18
2023-02-12T03:25:24.532Z,14.73
2023-02-12T03:28:18.523Z,16.90
2023-02-12T03:31:10.773Z,14.50
2023-02-12T03:34:00.375Z,14.82
2023-02-12T03:36:45.749Z,16.58
2023-02-12T03:39:34.453Z,16.80
2023-02-12T03:42:16.416Z,22.95
2023-02-12T03:44:55.486Z,18.58
2023-02-12T03:47:54.424Z,17.15
2023-02-12T03:50:58.466Z,19.00
2023-02-12T03:53:30.100Z,16.63
2023-02-12T03:56:09.476Z,15.18
2023-02-12T03:58:45.480Z,19.88
2023-02-12T04:01:14.321Z,15.57
2023-02-12T04:03:47.463Z,14.77
2023-02-12T04:06:25.804Z,16.20
2023-02-12T04:09:00.461Z,16.35
2023-02-12T04:11:52.438Z,17.38
2023-02-12T04:14:29.565Z,18.17
2023-02-12T04:17:22.488Z,15.90
2023-02-12T04:20:19.542Z,17.45
2023-02-12T04:23:18.182Z,16.15
2023-02-12T04:26:08.554Z,15.80
2023-02-12T04:32:01.509Z,13.00
2023-02-12T04:34:28.247Z,12.30
2023-02-12T04:37:14.529Z,16.38
2023-02-12T04:39:49.558Z,15.48
2023-02-12T04:42:16.455Z,13.32
2023-02-12T04:44:51.524Z,16.77
2023-02-12T04:47:20.576Z,18.83
2023-02-12T04:49:53.528Z,19.88
2023-02-12T04:52:27.992Z,18.67
2023-02-12T04:55:01.557Z,19.63
2023-02-12T04:57:35.520Z,17.20
2023-02-12T05:00:12.618Z,16.60
2023-02-12T05:02:39.420Z,14.57
2023-02-12T05:05:12.582Z,18.05
2023-02-12T05:07:44.732Z,14.18
2023-02-12T05:10:18.765Z,15.55
2023-02-12T05:12:54.597Z,12.05
2023-02-12T05:15:21.734Z,12.73
2023-02-12T05:17:55.609Z,13.27
2023-02-12T05:20:22.450Z,14.95
2023-02-12T05:22:59.586Z,12.20
2023-02-12T05:25:26.386Z,12.23
2023-02-12T05:27:59.652Z,14.93
2023-02-12T05:30:26.399Z,12.68
2023-02-12T05:32:59.608Z,14.32
2023-02-12T05:35:26.452Z,15.15
2023-02-12T05:37:59.610Z,16.73
2023-02-12T05:40:26.423Z,16.15
2023-02-12T05:42:59.655Z,15.32
2023-02-12T05:45:27.998Z,14.90
2023-02-12T05:48:02.618Z,14.77
2023-02-12T05:50:29.455Z,13.52
2023-02-12T05:53:10.639Z,14.80
2023-02-12T05:55:37.409Z,13.50
2023-02-12T05:58:04.232Z,12.90
2023-02-12T06:00:37.659Z,13.13
2023-02-12T06:03:04.511Z,13.13
2023-02-12T06:05:37.690Z,13.95
2023-02-12T06:08:04.687Z,10.80
2023-02-12T06:10:37.649Z,11.43
2023-02-12T06:13:04.495Z,12.75
2023-02-12T06:15:37.672Z,11.15
2023-02-12T06:18:04.522Z,11.98
2023-02-12T06:20:37.685Z,11.02
2023-02-12T06:23:10.666Z,11.15
2023-02-12T06:25:43.707Z,10.40
2023-02-12T06:28:10.654Z,12.50
2023-02-12T06:30:43.750Z,11.90
2023-02-12T06:33:10.542Z,13.43
2023-02-12T06:35:44.688Z,12.60
2023-02-12T06:38:11.555Z,13.27
2023-02-12T06:40:44.785Z,11.75
2023-02-12T06:43:18.799Z,13.25
2023-02-12T06:45:45.728Z,12.38
2023-02-12T06:50:51.516Z,12.10
2023-02-12T06:53:28.798Z,11.77
2023-02-12T06:55:55.876Z,12.15
2023-02-12T06:58:29.728Z,13.73
2023-02-12T07:01:02.770Z,10.63
2023-02-12T07:03:29.743Z,11.85
2023-02-12T07:06:02.817Z,13.02
2023-02-12T07:08:35.750Z,12.85
2023-02-12T07:11:03.442Z,12.95
2023-02-12T07:13:41.784Z,12.50
2023-02-12T07:16:22.839Z,10.70
2023-02-12T07:18:49.761Z,10.73
2023-02-12T07:21:17.234Z,12.82
2023-02-12T07:23:55.871Z,11.15
2023-02-12T07:26:23.127Z,12.20
2023-02-12T07:28:57.892Z,10.70
2023-02-12T07:31:24.794Z,11.52
2023-02-12T07:34:02.793Z,12.73
2023-02-12T07:36:32.232Z,12.50
2023-02-12T07:39:11.824Z,11.18
2023-02-12T07:41:38.713Z,18.40
2023-02-12T07:44:16.828Z,15.73
2023-02-12T07:46:48.333Z,13.43
2023-02-12T07:49:25.818Z,12.95
2023-02-12T07:51:52.681Z,12.05
2023-02-12T07:54:25.820Z,11.52
2023-02-12T07:56:59.859Z,11.50
2023-02-12T07:59:34.064Z,10.60
2023-02-12T08:02:04.018Z,11.45
2023-02-12T08:04:37.988Z,11.32
2023-02-12T08:07:04.971Z,8.80
2023-02-12T08:09:37.899Z,10.27
2023-02-12T08:12:04.995Z,10.18
2023-02-12T08:14:37.895Z,8.73
2023-02-12T08:17:10.966Z,8.45
2023-02-12T08:19:37.902Z,9.98
2023-02-12T08:22:12.882Z,8.68
2023-02-12T08:24:46.910Z,8.38
2023-02-12T08:27:22.919Z,11.43
2023-02-12T08:29:55.880Z,10.70
2023-02-12T08:32:28.900Z,9.63
2023-02-12T08:34:55.691Z,11.52
2023-02-12T08:37:34.894Z,8.45
2023-02-12T08:40:01.715Z,9.02
2023-02-12T08:42:34.930Z,9.45
2023-02-12T08:45:07.890Z,9.30
2023-02-12T08:47:40.885Z,9.70
2023-02-12T08:50:14.946Z,8.23
2023-02-12T08:52:47.996Z,7.90
2023-02-12T08:55:21.945Z,7.35
2023-02-12T08:57:48.685Z,7.90
2023-02-12T09:00:24.946Z,7.93
2023-02-12T09:02:53.882Z,9.55
2023-02-12T09:05:26.925Z,7.97
2023-02-12T09:07:55.334Z,8.05
2023-02-12T09:10:28.936Z,7.70
2023-02-12T09:13:01.918Z,6.63
2023-02-12T09:15:28.663Z,7.82
2023-02-12T09:18:01.934Z,6.47
2023-02-12T09:20:28.822Z,6.30
2023-02-12T09:23:02.990Z,7.35
2023-02-12T09:25:34.419Z,6.35
2023-02-12T09:28:11.002Z,6.73
2023-02-12T09:30:45.989Z,5.25
2023-02-12T09:33:22.983Z,5.95
2023-02-12T09:35:57.220Z,5.38
2023-02-12T09:38:24.244Z,6.65
2023-02-12T09:41:18.495Z,6.60
2023-02-12T09:44:00.738Z,7.22
2023-02-12T09:46:38.403Z,6.57
2023-02-12T09:49:26.512Z,7.97
2023-02-12T09:52:01.137Z,7.97
2023-02-12T09:54:38.966Z,6.32
2023-02-12T09:57:36.261Z,7.57
2023-02-12T10:00:11.593Z,8.65
2023-02-12T10:02:47.065Z,8.25
2023-02-12T10:05:20.993Z,8.07
2023-02-12T10:08:09.344Z,13.27
2023-02-12T10:11:00.976Z,10.48
2023-02-12T10:13:55.065Z,8.02
2023-02-12T10:16:24.629Z,8.07
2023-02-12T10:19:27.092Z,8.85
2023-02-12T10:22:17.269Z,7.57
2023-02-12T10:25:29.083Z,8.60
2023-02-12T10:28:00.244Z,7.95
2023-02-12T10:30:44.131Z,6.97
2023-02-12T10:33:17.548Z,7.45
2023-02-12T10:35:57.354Z,7.63
2023-02-12T10:38:29.075Z,6.90
2023-02-12T10:41:04.112Z,6.63
2023-02-12T10:43:34.282Z,9.80
2023-02-12T10:46:08.092Z,9.80
2023-02-12T10:48:40.119Z,8.38
2023-02-12T10:51:16.111Z,11.32
2023-02-12T10:53:45.571Z,10.85
2023-02-12T10:56:29.120Z,10.55
2023-02-12T10:59:14.180Z,8.40
2023-02-12T11:01:54.119Z,9.65
2023-02-12T11:04:28.579Z,9.77
2023-02-12T11:07:13.265Z,8.95
2023-02-12T11:09:49.238Z,10.65
2023-02-12T11:12:47.285Z,8.40
2023-02-12T11:15:17.084Z,10.75
2023-02-12T11:18:10.165Z,8.57
2023-02-12T11:20:48.524Z,7.97
2023-02-12T11:23:45.111Z,7.05
2023-02-12T11:26:18.144Z,10.15
2023-02-12T11:29:04.407Z,12.75
2023-02-12T11:31:33.820Z,10.48
2023-02-12T11:34:28.181Z,11.40
2023-02-12T11:36:55.307Z,10.63
2023-02-12T11:39:40.169Z,14.75
2023-02-12T11:42:16.068Z,11.82
2023-02-12T11:44:55.176Z,10.13
2023-02-12T11:47:28.523Z,9.77
2023-02-12T11:50:32.195Z,10.48
2023-02-12T11:53:09.470Z,7.05
2023-02-12T11:55:47.244Z,10.90
2023-02-12T11:58:23.817Z,8.55
2023-02-12T12:01:19.612Z,9.93
2023-02-12T12:04:14.923Z,8.32
2023-02-12T12:06:56.350Z,8.32
2023-02-12T12:09:46.715Z,10.60
2023-02-12T12:12:52.205Z,9.55
2023-02-12T12:16:01.275Z,8.18
2023-02-12T12:19:07.257Z,10.18
2023-02-12T12:22:07.364Z,9.32
2023-02-12T12:25:01.390Z,10.23
2023-02-12T12:28:01.348Z,8.68
2023-02-12T12:30:59.306Z,7.43
2023-02-12T12:33:55.231Z,9.48
2023-02-12T12:37:02.627Z,8.52
2023-02-12T12:39:54.937Z,7.50
2023-02-12T12:42:54.547Z,9.40
2023-02-12T12:45:52.051Z,9.23
2023-02-12T12:48:51.319Z,11.30
2023-02-12T12:51:43.305Z,14.07
2023-02-12T12:54:25.284Z,10.63
2023-02-12T12:57:07.028Z,12.30
2023-02-12T12:59:55.312Z,12.13
2023-02-12T13:02:38.284Z,10.95
2023-02-12T13:05:40.287Z,10.63
2023-02-12T13:08:25.272Z,10.75
2023-02-12T13:11:09.436Z,13.35
2023-02-12T13:13:39.643Z,10.90
2023-02-12T13:16:42.420Z,10.05
2023-02-12T13:19:42.602Z,9.55
2023-02-12T13:22:54.365Z,14.00
2023-02-12T13:25:40.196Z,16.17
2023-02-12T13:28:21.613Z,15.45
2023-02-12T13:30:52.248Z,13.82
2023-02-12T13:33:44.349Z,14.27
2023-02-12T13:36:14.732Z,13.20
2023-02-12T13:39:14.691Z,13.95
2023-02-12T13:41:48.191Z,14.70
2023-02-12T13:44:40.397Z,13.48
2023-02-12T13:47:29.741Z,14.15
2023-02-12T13:50:21.377Z,14.48
2023-02-12T13:53:04.462Z,12.32
2023-02-12T13:55:53.531Z,19.70
2023-02-12T13:58:37.415Z,18.83
2023-02-12T14:01:19.469Z,15.73
2023-02-12T14:03:47.315Z,17.65
2023-02-12T14:06:27.384Z,21.23
2023-02-12T14:09:09.211Z,18.17
2023-02-12T14:11:56.419Z,22.73
2023-02-12T14:14:31.298Z,17.13
2023-02-12T14:17:37.450Z,15.82
2023-02-12T14:20:25.855Z,17.50
2023-02-12T14:23:27.555Z,17.52
2023-02-12T14:26:15.244Z,14.85
2023-02-12T14:29:08.416Z,16.45
2023-02-12T14:31:39.536Z,15.02
2023-02-12T14:34:06.450Z,13.18
2023-02-12T14:36:39.539Z,13.95
2023-02-12T14:39:22.283Z,15.23
2023-02-12T14:42:22.586Z,16.75
2023-02-12T14:44:57.414Z,15.93
2023-02-12T14:47:36.630Z,15.57
2023-02-12T14:50:14.455Z,16.95
2023-02-12T14:52:55.478Z,23.70
2023-02-12T14:55:40.782Z,20.55
2023-02-12T14:58:17.974Z,20.55
2023-02-12T15:00:56.072Z,19.20
2023-02-12T15:06:28.500Z,20.25
2023-02-12T15:09:12.303Z,21.05
2023-02-12T15:11:48.805Z,20.73
2023-02-12T15:14:23.147Z,20.30
2023-02-12T15:17:09.512Z,20.98
2023-02-12T15:19:58.060Z,21.33
2023-02-12T15:22:39.841Z,20.35
2023-02-12T15:25:31.951Z,18.97
2023-02-12T15:28:10.715Z,19.20
2023-02-12T15:30:37.849Z,17.35
2023-02-12T15:33:07.237Z,17.42
2023-02-12T15:35:44.663Z,16.50
2023-02-12T15:38:33.865Z,17.95
2023-02-12T15:41:02.228Z,17.55
2023-02-12T15:43:41.810Z,18.92
2023-02-12T15:46:17.250Z,16.60
2023-02-12T15:48:51.869Z,19.27
2023-02-12T15:51:33.159Z,18.42
2023-02-12T15:54:10.567Z,16.65
2023-02-12T15:56:47.785Z,15.18
2023-02-12T15:59:25.076Z,16.58
2023-02-12T16:02:09.731Z,15.20
2023-02-12T16:04:37.771Z,17.40
2023-02-12T16:07:04.761Z,25.98
2023-02-12T16:09:40.590Z,21.55
2023-02-12T16:12:18.674Z,22.33
2023-02-12T16:14:54.342Z,20.98
2023-02-12T16:17:40.723Z,17.05
2023-02-12T16:20:25.526Z,22.60
2023-02-12T16:23:04.703Z,17.58
2023-02-12T16:25:33.741Z,16.52
2023-02-12T16:28:11.003Z,17.75
2023-02-12T16:30:42.780Z,17.58
2023-02-12T16:33:47.612Z,14.57
2023-02-12T16:36:26.959Z,19.08
2023-02-12T16:38:59.300Z,17.77
2023-02-12T16:41:38.905Z,14.77
2023-02-12T16:44:12.809Z,15.27
2023-02-12T16:47:06.035Z,14.15
2023-02-12T16:49:40.009Z,16.90
2023-02-12T16:52:40.923Z,16.02
2023-02-12T16:55:21.646Z,17.05
2023-02-12T16:57:48.390Z,15.68
2023-02-12T17:00:23.718Z,16.13
2023-02-12T17:02:53.884Z,14.57
2023-02-12T17:05:29.695Z,14.60
2023-02-12T17:08:03.709Z,15.70
2023-02-12T17:10:30.533Z,17.55
2023-02-12T17:13:06.703Z,18.20
2023-02-12T17:16:02.738Z,21.65
2023-02-12T17:18:32.746Z,20.17
2023-02-12T17:21:28.779Z,16.35
2023-02-12T17:23:55.833Z,19.10
2023-02-12T17:26:30.705Z,21.33
2023-02-12T17:29:05.285Z,24.60
2023-02-12T17:31:42.833Z,18.92
2023-02-12T17:34:16.760Z,20.52
2023-02-12T17:36:43.576Z,16.48
2023-02-12T17:39:14.251Z,17.10
2023-02-12T17:41:48.765Z,16.08
2023-02-12T17:44:22.766Z,15.82
2023-02-12T17:46:55.757Z,15.82
2023-02-12T17:49:22.737Z,13.77
2023-02-12T17:51:55.775Z,16.45
2023-02-12T17:54:22.598Z,17.25
2023-02-12T17:57:03.821Z,16.20
2023-02-12T17:59:30.638Z,15.77
2023-02-12T18:02:03.790Z,13.30
2023-02-12T18:04:35.872Z,13.38
2023-02-12T18:07:12.780Z,13.80
2023-02-12T18:09:46.788Z,13.02
2023-02-12T18:12:20.776Z,15.48
2023-02-12T18:14:47.548Z,16.98
2023-02-12T18:17:30.782Z,12.05
2023-02-12T18:20:03.795Z,14.35
2023-02-12T18:22:32.372Z,14.77
2023-02-12T18:25:05.794Z,14.52
2023-02-12T18:27:38.869Z,14.38
2023-02-12T18:30:13.860Z,16.92
2023-02-12T18:32:40.847Z,16.60
2023-02-12T18:35:14.844Z,12.85
2023-02-12T18:37:47.796Z,15.38
2023-02-12T18:40:14.708Z,14.57
2023-02-12T18:42:48.821Z,14.88
2023-02-12T18:45:15.730Z,14.50
2023-02-12T18:47:48.874Z,13.82
2023-02-12T18:50:15.680Z,14.50
2023-02-12T18:52:48.872Z,16.73
2023-02-12T18:55:21.864Z,13.98
2023-02-12T18:58:02.069Z,18.67
2023-02-12T19:00:35.898Z,17.55
2023-02-12T19:03:05.484Z,17.35
2023-02-12T19:05:38.851Z,19.40
2023-02-12T19:08:11.136Z,17.38
2023-02-12T19:10:48.900Z,22.27
2023-02-12T19:13:18.226Z,32.38
2023-02-12T19:15:51.980Z,29.45
2023-02-12T19:18:19.555Z,23.98
2023-02-12T19:20:52.950Z,28.23
2023-02-12T19:23:19.711Z,25.27
2023-02-12T19:25:46.591Z,26.80
2023-02-12T19:28:19.917Z,25.60
2023-02-12T19:30:46.934Z,25.17
2023-02-12T19:33:19.946Z,25.83
2023-02-12T19:35:49.988Z,22.05
2023-02-12T19:38:24.950Z,30.77
2023-02-12T19:40:51.818Z,27.60
2023-02-12T19:43:25.001Z,23.75
2023-02-12T19:45:57.943Z,23.77
2023-02-12T19:48:31.988Z,23.23
2023-02-12T19:50:58.862Z,18.63
2023-02-12T19:53:28.021Z,19.85
2023-02-12T19:56:02.031Z,18.98
2023-02-12T19:58:30.233Z,18.67
2023-02-12T20:01:05.006Z,16.70
2023-02-12T20:03:31.841Z,14.82
2023-02-12T20:06:13.014Z,17.45
2023-02-12T20:08:47.986Z,14.38
2023-02-12T20:11:26.008Z,16.05
2023-02-12T20:13:53.067Z,15.98
2023-02-12T20:16:23.025Z,17.17
2023-02-12T20:18:59.988Z,16.25
2023-02-12T20:21:28.790Z,17.58
2023-02-12T20:24:03.042Z,15.93
2023-02-12T20:26:38.092Z,15.93
2023-02-12T20:29:11.047Z,23.75
2023-02-12T20:31:38.162Z,16.13
2023-02-12T20:34:15.030Z,15.25
2023-02-12T20:36:46.142Z,20.55
2023-02-12T20:39:23.045Z,27.52
2023-02-12T20:41:51.034Z,23.52
2023-02-12T20:44:28.064Z,23.73
2023-02-12T20:47:06.093Z,19.38
2023-02-12T20:49:33.197Z,15.98
2023-02-12T20:52:06.050Z,18.05
2023-02-12T20:54:33.021Z,17.65
2023-02-12T20:57:07.073Z,22.42
2023-02-12T20:59:40.065Z,18.45
2023-02-12T21:02:07.424Z,18.23
2023-02-12T21:04:34.578Z,17.60
2023-02-12T21:07:08.104Z,19.60
2023-02-12T21:09:34.901Z,19.33
2023-02-12T21:12:08.281Z,18.45
2023-02-12T21:14:42.055Z,18.17
2023-02-12T21:17:08.898Z,17.75
2023-02-12T21:19:46.076Z,17.65
2023-02-12T21:22:19.067Z,18.00
2023-02-12T21:24:45.884Z,21.70
2023-02-12T21:27:20.101Z,15.93
2023-02-12T21:29:53.083Z,16.52
2023-02-12T21:32:26.177Z,17.60
2023-02-12T21:34:59.152Z,18.60
2023-02-12T21:37:39.131Z,15.77
2023-02-12T21:40:07.070Z,16.58
2023-02-12T21:42:40.136Z,18.27
2023-02-12T21:45:07.237Z,20.30
2023-02-12T21:47:35.075Z,18.75
2023-02-12T21:50:08.190Z,16.77
2023-02-12T21:52:34.956Z,16.85
2023-02-12T21:55:08.154Z,17.10
2023-02-12T21:57:34.942Z,15.73
2023-02-12T22:00:01.731Z,14.75
2023-02-12T22:02:35.242Z,19.98
2023-02-12T22:05:02.080Z,19.33
2023-02-12T22:07:36.156Z,16.40
2023-02-12T22:10:09.153Z,18.48
2023-02-12T22:12:43.119Z,19.75
2023-02-12T22:15:10.114Z,20.67
2023-02-12T22:17:49.161Z,18.52
2023-02-12T22:20:16.046Z,18.83
2023-02-12T22:22:49.162Z,17.52
2023-02-12T22:25:16.048Z,16.73
2023-02-12T22:27:42.839Z,15.50
2023-02-12T22:30:16.182Z,18.38
2023-02-12T22:32:43.065Z,16.73
2023-02-12T22:35:09.961Z,17.75
2023-02-12T22:37:49.155Z,18.90
2023-02-12T22:40:22.169Z,18.13
2023-02-12T22:42:55.205Z,18.27
2023-02-12T22:45:24.938Z,14.18
2023-02-12T22:48:04.511Z,15.50
2023-02-12T22:50:31.263Z,13.88
2023-02-12T22:53:04.210Z,19.27
2023-02-12T22:55:31.049Z,15.75
2023-02-12T22:58:05.246Z,16.65
2023-02-12T23:00:32.269Z,18.15
2023-02-12T23:02:59.906Z,21.65
2023-02-12T23:05:33.199Z,19.40
2023-02-12T23:08:06.287Z,21.95
2023-02-12T23:10:33.386Z,21.63
2023-02-12T23:13:21.276Z,19.23
2023-02-12T23:15:55.230Z,21.52
2023-02-12T23:18:30.263Z,20.90
2023-02-12T23:21:03.255Z,20.40
2023-02-12T23:23:30.321Z,22.30
2023-02-12T23:26:03.280Z,19.80
2023-02-12T23:28:30.510Z,20.45
2023-02-12T23:31:04.401Z,19.00
2023-02-12T23:33:31.338Z,18.95
2023-02-12T23:36:07.306Z,19.05
2023-02-12T23:38:34.160Z,21.63
2023-02-12T23:41:00.914Z,20.25
2023-02-12T23:43:34.300Z,18.10
2023-02-12T23:46:07.414Z,18.40
2023-02-12T23:48:34.224Z,19.17
2023-02-12T23:51:07.324Z,22.45
2023-02-12T23:53:34.158Z,19.60
2023-02-12T23:56:07.369Z,19.98
2023-02-12T23:58:34.155Z,19.50
